Time;durP1;ratioP1;P1;durP2;ratioP2;P2;SDS_P1;SDS_P2;PMS_P1;PMS_P2;Temp;Humidity;BMP_temperature;BMP_pressure;BME280_temperature;BME280_humidity;BME280_pressure;Samples;Min_cycle;Max_cycle;Signal;HPM_P1;HPM_P2
2022/04/21 00:00:23;;;;;;;;;;;;;;;31.23;20.77;100573.72;5076501;28;1019;-43
2022/04/21 00:02:48;;;;;;;;;;;;;;;31.09;20.73;100562.09;5077025;28;913;-43
2022/04/21 00:05:13;;;;;;;;;;;;;;;30.36;21.29;100570.16;5077075;28;821;-44
2022/04/21 00:07:39;;;;;;;;;;;;;;;30.17;21.37;100564.50;5076229;28;822;-42
2022/04/21 00:10:04;;;;;;;;;;;;;;;30.02;21.60;100570.13;5076451;28;1891;-42
2022/04/21 00:12:30;;;;;;;;;;;;;;;30.01;21.57;100584.72;5076714;28;806;-42
2022/04/21 00:14:55;;;;;;;;;;;;;;;29.86;21.54;100595.78;5076014;28;861;-42
2022/04/21 00:17:20;;;;;;;;;;;;;;;29.53;22.32;100593.78;5076304;28;811;-43
2022/04/21 00:19:46;;;;;;;;;;;;;;;29.39;22.11;100585.59;5076697;28;822;-42
2022/04/21 00:24:55;;;;;;;;;;;;;;;29.01;22.79;100594.16;5076436;28;860;-43
2022/04/21 00:27:20;;;;;;;;;;;;;;;28.90;23.14;100584.69;5076063;28;981;-42
2022/04/21 00:29:45;;;;;;;;;;;;;;;28.76;23.38;100583.78;5076697;28;802;-42
2022/04/21 00:32:11;;;;;;;;;;;;;;;28.68;23.44;100577.47;5076275;28;1905;-42
2022/04/21 00:34:37;;;;;;;;;;;;;;;28.56;23.30;100584.47;5075950;28;821;-42
2022/04/21 00:37:02;;;;;;;;;;;;;;;28.59;23.24;100589.50;5075964;28;844;-43
2022/04/21 00:39:28;;;;;;;;;;;;;;;28.57;23.34;100594.25;5076271;28;814;-43
2022/04/21 00:42:00;;;;;;;;;;;;;;;28.44;23.48;100592.28;5076627;28;833;-43
2022/04/21 00:44:25;;;;;;;;;;;;;;;28.41;22.91;100600.81;5076586;28;805;-44
2022/04/21 00:46:52;;;;;;;;;;;;;;;28.10;23.75;100608.19;5075909;28;990;-43
2022/04/21 00:49:17;;;;;;;;;;;;;;;27.92;24.04;100617.59;5057938;28;844;-43
2022/04/21 00:51:42;;;;;;;;;;;;;;;27.99;23.94;100606.84;5076662;28;1901;-43
2022/04/21 00:54:08;;;;;;;;;;;;;;;28.28;23.70;100606.91;5076341;28;786;-41
2022/04/21 00:56:33;;;;;;;;;;;;;;;28.39;23.85;100614.53;5058039;28;865;-43
2022/04/21 00:58:59;;;;;;;;;;;;;;;28.56;23.54;100622.38;5057342;28;1476;-43
2022/04/21 01:04:08;;;;;;;;;;;;;;;28.81;23.10;100627.34;5056215;28;701;-42
2022/04/21 01:06:34;;;;;;;;;;;;;;;28.76;22.69;100633.31;5056656;28;822;-43
2022/04/21 01:08:59;;;;;;;;;;;;;;;27.68;23.15;100537.66;5056680;28;709;-44
2022/04/21 01:11:24;;;;;;;;;;;;;;;28.32;23.63;100648.75;5056512;28;1918;-43
2022/04/21 01:13:50;;;;;;;;;;;;;;;28.46;23.34;100653.28;5059450;28;910;-45
2022/04/21 01:16:15;;;;;;;;;;;;;;;28.14;23.90;100651.91;5059766;28;878;-43
2022/04/21 01:18:41;;;;;;;;;;;;;;;27.96;23.83;100654.00;5056308;28;877;-44
2022/04/21 01:21:06;;;;;;;;;;;;;;;27.84;23.94;100659.06;5055909;28;754;-44
2022/04/21 01:23:31;;;;;;;;;;;;;;;27.79;23.96;100656.13;5056344;28;952;-43
2022/04/21 01:25:57;;;;;;;;;;;;;;;27.71;23.98;100653.53;5066080;28;855;-43
2022/04/21 01:28:25;;;;;;;;;;;;;;;27.67;23.82;100654.91;5038634;28;857;-44
2022/04/21 01:30:53;;;;;;;;;;;;;;;27.64;24.35;100656.13;5040033;28;1902;-42
2022/04/21 01:33:19;;;;;;;;;;;;;;;27.70;24.20;100654.56;5056085;28;923;-43
2022/04/21 01:35:44;;;;;;;;;;;;;;;27.83;23.87;100654.72;5055928;28;861;-43
2022/04/21 01:41:11;;;;;;;;;;;;;;;28.13;23.87;100631.31;5074042;28;655;-44
2022/04/21 01:43:43;;;;;;;;;;;;;;;28.26;23.65;100617.09;5078886;28;837;-43
2022/04/21 01:46:09;;;;;;;;;;;;;;;28.47;23.51;100622.50;5075377;28;887;-42
2022/04/21 01:48:35;;;;;;;;;;;;;;;28.76;22.89;100622.50;5059904;28;830;-44
2022/04/21 01:51:00;;;;;;;;;;;;;;;28.51;22.85;100619.41;5065882;28;1898;-43
2022/04/21 01:53:25;;;;;;;;;;;;;;;28.18;23.45;100616.19;5059592;28;902;-43
2022/04/21 01:55:51;;;;;;;;;;;;;;;28.06;23.63;100618.56;5059995;28;786;-43
2022/04/21 01:58:17;;;;;;;;;;;;;;;28.23;23.78;100618.28;5059717;28;1044;-43
2022/04/21 02:00:42;;;;;;;;;;;;;;;28.32;23.64;100619.00;5068910;28;1175;-43
2022/04/21 02:03:07;;;;;;;;;;;;;;;28.40;23.72;100621.59;5079402;28;831;-43
2022/04/21 02:05:33;;;;;;;;;;;;;;;28.60;23.54;100620.94;5079472;28;1165;-43
2022/04/21 02:07:59;;;;;;;;;;;;;;;28.25;23.72;100627.06;5079143;28;847;-43
2022/04/21 02:10:24;;;;;;;;;;;;;;;28.04;23.73;100634.16;5078959;28;1901;-43
2022/04/21 02:12:49;;;;;;;;;;;;;;;28.04;24.16;100627.91;5078917;28;857;-41
2022/04/21 02:15:17;;;;;;;;;;;;;;;28.10;24.11;100632.53;5078627;28;947;-43
2022/04/21 02:17:42;;;;;;;;;;;;;;;28.29;23.75;100641.88;5079020;28;881;-43
2022/04/21 02:20:08;;;;;;;;;;;;;;;28.09;23.57;100644.38;5078778;28;838;-43
2022/04/21 02:22:36;;;;;;;;;;;;;;;27.80;23.79;100649.69;5079234;28;819;-41
2022/04/21 02:25:05;;;;;;;;;;;;;;;27.64;24.53;100648.03;5079003;28;917;-41
2022/04/21 02:27:30;;;;;;;;;;;;;;;27.61;24.89;100648.41;5074741;28;1135;-42
2022/04/21 02:29:56;;;;;;;;;;;;;;;27.74;24.63;100653.97;5078030;28;852;-42
2022/04/21 02:32:21;;;;;;;;;;;;;;;27.94;24.34;100658.81;5078581;28;1926;-43
2022/04/21 02:34:47;;;;;;;;;;;;;;;27.85;24.22;100660.78;5079118;28;825;-42
2022/04/21 02:37:12;;;;;;;;;;;;;;;27.73;24.28;100656.88;5078848;28;939;-41
2022/04/21 02:39:37;;;;;;;;;;;;;;;27.63;24.57;100649.88;5078877;28;818;-43
2022/04/21 02:42:04;;;;;;;;;;;;;;;27.58;25.04;100641.50;5077784;28;782;-43
2022/04/21 02:44:30;;;;;;;;;;;;;;;27.72;24.79;100647.09;5078218;28;1286;-43
2022/04/21 02:46:55;;;;;;;;;;;;;;;27.75;24.66;100644.84;5077859;28;931;-41
2022/04/21 02:49:20;;;;;;;;;;;;;;;27.80;24.61;100651.53;5077939;28;819;-40
2022/04/21 02:51:46;;;;;;;;;;;;;;;27.89;24.73;100655.84;5078427;28;1955;-43
2022/04/21 02:59:39;;;;;;;;;;;;;;;27.63;24.29;100651.72;5078260;28;1183;-42
2022/04/21 03:02:04;;;;;;;;;;;;;;;27.59;25.01;100662.06;5083739;28;1495;-42
2022/04/21 03:04:30;;;;;;;;;;;;;;;27.75;24.41;100652.97;5078709;28;871;-41
2022/04/21 03:06:55;;;;;;;;;;;;;;;27.49;24.42;100656.97;5081194;28;929;-43
2022/04/21 03:09:20;;;;;;;;;;;;;;;27.41;24.23;100665.16;5078206;28;804;-41
2022/04/21 03:11:48;;;;;;;;;;;;;;;27.25;24.61;100674.31;5078245;28;1967;-42
2022/04/21 03:14:14;;;;;;;;;;;;;;;27.18;24.89;100679.63;5078006;28;754;-43
2022/04/21 03:16:39;;;;;;;;;;;;;;;27.13;24.53;100677.47;5080021;28;912;-43
2022/04/21 03:19:04;;;;;;;;;;;;;;;27.05;25.14;100677.56;5078635;28;830;-41
2022/04/21 03:24:19;;;;;;;;;;;;;;;27.36;24.49;100692.75;5091863;28;623;-41
2022/04/21 03:26:48;;;;;;;;;;;;;;;26.04;22.58;100690.91;5090255;28;953;-42
2022/04/21 03:29:14;;;;;;;;;;;;;;;26.75;23.36;100701.75;5078139;28;749;-42
2022/04/21 03:31:42;;;;;;;;;;;;;;;26.95;22.23;100690.44;5084099;28;1955;-39
2022/04/21 03:34:07;;;;;;;;;;;;;;;26.92;21.77;100691.66;5079965;28;853;-43
2022/04/21 03:36:33;;;;;;;;;;;;;;;25.76;21.21;100691.41;5077843;28;865;-40
2022/04/21 03:38:58;;;;;;;;;;;;;;;25.23;22.04;100691.88;5077912;28;826;-39
2022/04/21 03:41:23;;;;;;;;;;;;;;;26.12;22.40;100697.28;5077840;28;842;-39
2022/04/21 03:43:49;;;;;;;;;;;;;;;26.45;21.59;100694.41;5077838;28;733;-40
2022/04/21 03:46:14;;;;;;;;;;;;;;;26.62;21.03;100692.44;5094227;28;874;-42
2022/04/21 03:48:39;;;;;;;;;;;;;;;26.69;20.97;100694.38;5096963;28;808;-41
2022/04/21 03:51:05;;;;;;;;;;;;;;;26.66;21.01;100700.97;5097128;28;1890;-42
2022/04/21 03:53:30;;;;;;;;;;;;;;;26.76;20.92;100695.31;5096782;28;828;-41
2022/04/21 03:55:55;;;;;;;;;;;;;;;26.80;20.51;100702.06;5097262;28;833;-42
2022/04/21 03:58:21;;;;;;;;;;;;;;;26.16;21.64;100695.91;5092265;28;908;-40
2022/04/21 04:00:46;;;;;;;;;;;;;;;26.65;20.89;100694.75;5075887;28;1500;-35
2022/04/21 04:03:11;;;;;;;;;;;;;;;27.12;20.29;100693.84;5076933;28;929;-38
2022/04/21 04:05:36;;;;;;;;;;;;;;;27.46;20.17;100689.75;5077414;28;798;-40
2022/04/21 04:10:53;;;;;;;;;;;;;;;27.33;19.80;100686.88;5047456;28;1906;-36
2022/04/21 04:13:19;;;;;;;;;;;;;;;27.21;19.83;100687.34;5076974;28;835;-37
2022/04/21 04:15:48;;;;;;;;;;;;;;;27.32;19.72;100691.47;5076224;28;805;-37
2022/04/21 04:18:13;;;;;;;;;;;;;;;26.03;20.28;100688.41;5076882;28;859;-36
2022/04/21 04:20:39;;;;;;;;;;;;;;;25.36;21.11;100687.81;5077037;28;1686;-38
2022/04/21 04:23:04;;;;;;;;;;;;;;;26.17;20.89;100684.94;5076255;28;941;-36
2022/04/21 04:25:29;;;;;;;;;;;;;;;26.63;19.85;100685.16;5076107;28;925;-35
2022/04/21 04:27:55;;;;;;;;;;;;;;;26.68;20.17;100684.59;5076827;28;1175;-37
2022/04/21 04:30:20;;;;;;;;;;;;;;;26.83;20.44;100688.19;5075842;28;1890;-39
2022/04/21 04:32:45;;;;;;;;;;;;;;;26.99;21.56;100680.97;5076062;28;932;-37
2022/04/21 04:35:10;;;;;;;;;;;;;;;27.13;21.84;100682.88;5076587;28;734;-38
2022/04/21 04:37:36;;;;;;;;;;;;;;;27.31;21.98;100683.53;5075864;28;877;-38
2022/04/21 04:40:01;;;;;;;;;;;;;;;27.42;21.99;100679.53;5076841;28;785;-38
2022/04/21 04:42:28;;;;;;;;;;;;;;;27.53;21.86;100680.94;5057608;28;1096;-35
2022/04/21 04:46:34;;;;;;;;;;;;;;;27.68;22.00;100679.06;5076522;28;770;-39
2022/04/21 04:47:39;;;;;;;;;;;;;;;27.80;21.68;100682.13;5075235;28;772;-38
2022/04/21 04:50:04;;;;;;;;;;;;;;;27.94;21.85;100690.41;5076287;28;846;-37
2022/04/21 04:52:30;;;;;;;;;;;;;;;28.10;21.94;100690.16;5076239;28;1910;-38
2022/04/21 04:54:56;;;;;;;;;;;;;;;28.32;21.67;100687.47;5076456;28;852;-41
2022/04/21 04:57:22;;;;;;;;;;;;;;;28.49;21.59;100689.97;5076746;28;833;-39
2022/04/21 04:59:47;;;;;;;;;;;;;;;28.38;21.79;100695.88;5075565;28;1041;-39
2022/04/21 05:02:13;;;;;;;;;;;;;;;27.76;22.46;100697.03;5073953;28;1059;-36
2022/04/21 05:04:38;;;;;;;;;;;;;;;27.39;22.61;100695.06;5076135;28;806;-39
2022/04/21 05:07:05;;;;;;;;;;;;;;;27.53;22.99;100697.13;5076163;28;818;-38
2022/04/21 05:09:30;;;;;;;;;;;;;;;27.84;22.72;100699.63;5075928;28;1466;-39
2022/04/21 05:11:55;;;;;;;;;;;;;;;27.88;22.89;100697.38;5075692;28;1967;-40
2022/04/21 05:14:21;;;;;;;;;;;;;;;27.70;22.91;100703.19;5075360;28;860;-39
2022/04/21 05:16:46;;;;;;;;;;;;;;;27.68;21.99;100692.56;5069479;28;812;-37
2022/04/21 05:19:16;;;;;;;;;;;;;;;27.85;21.79;100685.09;5076426;28;824;-38
2022/04/21 05:21:42;;;;;;;;;;;;;;;28.00;21.86;100684.22;5076130;28;1573;-37
2022/04/21 05:24:07;;;;;;;;;;;;;;;28.06;21.91;100683.44;5076002;28;853;-39
2022/04/21 05:26:33;;;;;;;;;;;;;;;28.16;22.04;100685.03;5075525;28;1096;-38
2022/04/21 05:28:59;;;;;;;;;;;;;;;28.27;22.00;100683.66;5075978;28;888;-38
2022/04/21 05:31:26;;;;;;;;;;;;;;;28.38;22.02;100693.19;5058208;28;1918;-39
2022/04/21 05:33:51;;;;;;;;;;;;;;;28.43;21.90;100696.97;5075980;28;770;-40
2022/04/21 05:36:17;;;;;;;;;;;;;;;28.51;21.96;100708.69;5075702;28;865;-40
2022/04/21 05:38:42;;;;;;;;;;;;;;;28.44;22.00;100704.06;5075083;28;1014;-42
2022/04/21 05:41:07;;;;;;;;;;;;;;;28.14;22.19;100708.72;5075705;28;815;-41
2022/04/21 05:43:45;;;;;;;;;;;;;;;27.32;23.60;100709.50;5075309;28;920;-39
2022/04/21 05:46:11;;;;;;;;;;;;;;;27.62;23.20;100714.91;5078728;28;872;-41
2022/04/21 05:48:36;;;;;;;;;;;;;;;27.97;22.68;100714.34;5076026;28;796;-42
2022/04/21 05:51:03;;;;;;;;;;;;;;;28.11;22.49;100718.06;5075442;28;1905;-40
2022/04/21 05:53:28;;;;;;;;;;;;;;;28.17;22.39;100711.03;5074971;28;835;-40
2022/04/21 05:55:53;;;;;;;;;;;;;;;28.26;22.51;100712.56;5070577;28;811;-38
2022/04/21 05:58:19;;;;;;;;;;;;;;;28.41;22.69;100717.13;5075143;28;853;-39
2022/04/21 06:00:44;;;;;;;;;;;;;;;28.47;22.62;100719.91;5056150;28;1052;-40
2022/04/21 06:03:11;;;;;;;;;;;;;;;28.41;22.42;100717.13;5075751;28;777;-40
2022/04/21 06:05:36;;;;;;;;;;;;;;;28.45;22.30;100730.09;5074782;28;1218;-39
2022/04/21 06:08:02;;;;;;;;;;;;;;;27.80;23.17;100717.25;5075408;28;890;-40
2022/04/21 06:10:27;;;;;;;;;;;;;;;27.81;23.19;100721.63;5075402;28;1917;-40
2022/04/21 06:12:53;;;;;;;;;;;;;;;28.23;22.81;100726.47;5075362;28;790;-36
2022/04/21 06:15:18;;;;;;;;;;;;;;;28.31;22.41;100725.53;5075521;28;891;-41
2022/04/21 06:17:45;;;;;;;;;;;;;;;28.30;22.34;100734.66;5075505;28;1157;-40
2022/04/21 06:20:10;;;;;;;;;;;;;;;28.35;22.52;100734.97;5075018;28;949;-41
2022/04/21 06:22:36;;;;;;;;;;;;;;;28.41;22.51;100727.97;5075516;28;771;-35
2022/04/21 06:25:01;;;;;;;;;;;;;;;28.24;22.74;100731.69;5077154;28;873;-36
2022/04/21 06:27:26;;;;;;;;;;;;;;;27.82;23.00;100734.13;5079256;28;1199;-40
2022/04/21 06:29:51;;;;;;;;;;;;;;;27.65;23.31;100738.88;5079003;28;893;-42
2022/04/21 06:32:17;;;;;;;;;;;;;;;27.57;24.01;100750.63;5073171;28;1902;-38
2022/04/21 06:34:42;;;;;;;;;;;;;;;27.68;23.69;100743.03;5078488;28;789;-38
2022/04/21 06:37:07;;;;;;;;;;;;;;;27.83;23.82;100743.06;5078876;28;830;-37
2022/04/21 06:39:33;;;;;;;;;;;;;;;27.37;23.79;100745.75;5078436;28;841;-38
2022/04/21 06:41:58;;;;;;;;;;;;;;;27.17;24.45;100750.00;5072548;28;763;-37
2022/04/21 06:49:51;;;;;;;;;;;;;;;27.26;24.42;100763.25;5078499;28;696;-36
2022/04/21 06:52:16;;;;;;;;;;;;;;;27.37;24.46;100766.53;5078766;28;1897;-34
2022/04/21 06:54:42;;;;;;;;;;;;;;;27.48;24.25;100768.78;5078341;28;894;-32
2022/04/21 06:57:07;;;;;;;;;;;;;;;27.72;23.93;100764.16;5078465;28;758;-37
2022/04/21 06:59:32;;;;;;;;;;;;;;;27.92;23.82;100766.28;5078154;28;1266;-37
2022/04/21 07:01:57;;;;;;;;;;;;;;;28.10;23.31;100773.16;5077801;28;817;-33
2022/04/21 07:04:23;;;;;;;;;;;;;;;27.86;23.28;100770.56;5078344;28;820;-37
2022/04/21 07:06:48;;;;;;;;;;;;;;;27.52;24.13;100774.66;5077760;28;758;-38
2022/04/21 07:09:13;;;;;;;;;;;;;;;27.33;24.14;100773.31;5077727;28;874;-34
2022/04/21 07:11:39;;;;;;;;;;;;;;;27.31;24.02;100761.88;5077958;28;1967;-38
2022/04/21 07:14:04;;;;;;;;;;;;;;;27.06;24.44;100765.63;5078243;28;892;-37
2022/04/21 07:16:30;;;;;;;;;;;;;;;26.95;23.75;100757.94;5071439;28;911;-34
2022/04/21 07:18:55;;;;;;;;;;;;;;;26.92;24.24;100753.75;5078016;28;1068;-34
2022/04/21 07:21:20;;;;;;;;;;;;;;;26.90;24.48;100755.78;5078050;28;810;-34
2022/04/21 07:23:46;;;;;;;;;;;;;;;27.05;24.25;100755.84;5077668;28;773;-37
2022/04/21 07:26:11;;;;;;;;;;;;;;;26.94;24.30;100754.41;5077453;28;950;-38
2022/04/21 07:28:36;;;;;;;;;;;;;;;26.87;24.61;100753.44;5078099;28;813;-37
2022/04/21 07:31:02;;;;;;;;;;;;;;;26.81;24.54;100746.91;5077601;28;1890;-32
2022/04/21 07:33:27;;;;;;;;;;;;;;;26.87;24.92;100748.91;5077660;28;928;-39
2022/04/21 07:35:52;;;;;;;;;;;;;;;27.12;24.42;100754.09;5077526;28;817;-36
2022/04/21 07:38:17;;;;;;;;;;;;;;;27.22;24.34;100761.94;5077569;28;878;-36
2022/04/21 07:40:43;;;;;;;;;;;;;;;27.09;24.72;100759.84;5077569;28;794;-36
2022/04/21 07:43:09;;;;;;;;;;;;;;;26.95;24.81;100756.06;5077576;28;929;-37
2022/04/21 07:45:41;;;;;;;;;;;;;;;26.98;24.82;100762.97;5077047;28;924;-37
2022/04/21 07:48:06;;;;;;;;;;;;;;;26.97;24.44;100756.75;5076793;28;794;-37
2022/04/21 07:50:31;;;;;;;;;;;;;;;26.90;24.75;100762.03;5077347;28;1945;-36
2022/04/21 07:53:15;;;;;;;;;;;;;;;27.12;24.54;100762.22;5077113;28;796;-36
2022/04/21 07:55:41;;;;;;;;;;;;;;;27.06;24.56;100759.41;5076903;28;836;-36
2022/04/21 07:58:06;;;;;;;;;;;;;;;27.06;24.46;100760.22;5077564;28;746;-33
2022/04/21 08:00:32;;;;;;;;;;;;;;;27.00;24.52;100760.91;5076042;28;1031;-35
2022/04/21 08:02:58;;;;;;;;;;;;;;;26.87;24.84;100748.91;5076988;28;848;-37
2022/04/21 08:05:23;;;;;;;;;;;;;;;26.72;25.07;100753.38;5077238;28;911;-34
2022/04/21 08:07:48;;;;;;;;;;;;;;;26.80;24.74;100741.69;5076679;28;750;-33
2022/04/21 08:10:14;;;;;;;;;;;;;;;26.73;24.88;100739.72;5076795;28;1906;-37
2022/04/21 08:12:40;;;;;;;;;;;;;;;26.78;24.85;100747.25;5076983;28;857;-34
2022/04/21 08:15:08;;;;;;;;;;;;;;;27.02;24.57;100743.56;5075793;28;876;-33
2022/04/21 08:17:34;;;;;;;;;;;;;;;26.87;24.92;100742.66;5076768;28;794;-36
2022/04/21 08:19:59;;;;;;;;;;;;;;;26.89;24.71;100740.63;5070024;28;1060;-34
2022/04/21 08:22:24;;;;;;;;;;;;;;;26.82;24.87;100747.75;5076602;28;805;-36
2022/04/21 08:33:01;;;;;;;;;;;;;;;26.81;24.98;100746.09;5069543;28;1009;-35
2022/04/21 08:35:26;;;;;;;;;;;;;;;26.74;25.23;100746.78;5073551;28;918;-36
2022/04/21 08:37:52;;;;;;;;;;;;;;;26.73;25.58;100758.59;5075359;28;1179;-38
2022/04/21 08:40:18;;;;;;;;;;;;;;;26.63;25.61;100752.59;5075747;28;994;-32
2022/04/21 08:42:44;;;;;;;;;;;;;;;26.90;24.97;100751.22;5075037;28;1196;-34
2022/04/21 08:45:09;;;;;;;;;;;;;;;27.04;24.91;100745.25;5076497;28;987;-38
2022/04/21 08:47:35;;;;;;;;;;;;;;;26.94;25.01;100751.72;5068935;28;786;-35
2022/04/21 08:50:03;;;;;;;;;;;;;;;27.10;24.91;100739.94;5076501;28;850;-35
2022/04/21 08:52:29;;;;;;;;;;;;;;;27.05;24.55;100736.09;5076071;28;1898;-36
2022/04/21 08:54:54;;;;;;;;;;;;;;;27.02;25.27;100738.16;5076438;28;1512;-37
2022/04/21 08:57:20;;;;;;;;;;;;;;;27.12;24.83;100739.75;5076321;28;790;-36
2022/04/21 08:59:46;;;;;;;;;;;;;;;26.63;25.39;100736.41;5076046;28;1055;-37
2022/04/21 09:02:11;;;;;;;;;;;;;;;26.60;25.62;100734.06;5075232;28;902;-34
2022/04/21 09:04:36;;;;;;;;;;;;;;;26.92;24.72;100732.16;5076316;28;887;-38
2022/04/21 09:07:15;;;;;;;;;;;;;;;26.82;25.33;100724.31;5075723;28;941;-35
2022/04/21 09:09:53;;;;;;;;;;;;;;;26.87;25.02;100724.59;5076372;28;713;-36
2022/04/21 09:12:18;;;;;;;;;;;;;;;27.18;25.18;100724.66;5052469;28;1910;-34
2022/04/21 09:14:47;;;;;;;;;;;;;;;27.21;25.05;100718.94;5076396;28;845;-36
2022/04/21 09:17:12;;;;;;;;;;;;;;;26.93;25.47;100727.56;5075524;28;856;-34
2022/04/21 09:19:40;;;;;;;;;;;;;;;26.84;25.27;100729.53;5058104;28;942;-37
2022/04/21 09:22:05;;;;;;;;;;;;;;;26.76;25.59;100722.31;5057998;28;1224;-35
2022/04/21 09:24:30;;;;;;;;;;;;;;;26.84;25.27;100719.53;5075324;28;1092;-35
2022/04/21 09:26:56;;;;;;;;;;;;;;;27.13;24.84;100722.53;5075332;28;1092;-36
2022/04/21 09:29:25;;;;;;;;;;;;;;;27.04;24.95;100712.84;5076083;28;816;-35
2022/04/21 09:32:00;;;;;;;;;;;;;;;27.26;24.63;100717.34;5075276;28;1905;-39
2022/04/21 09:34:25;;;;;;;;;;;;;;;27.23;26.98;100724.97;5069940;28;816;-34
2022/04/21 09:36:53;;;;;;;;;;;;;;;27.14;32.31;100721.53;5076011;28;961;-35
2022/04/21 09:39:19;;;;;;;;;;;;;;;27.10;33.83;100722.91;5068875;28;909;-36
2022/04/21 09:41:44;;;;;;;;;;;;;;;26.72;29.55;100727.25;5075601;28;773;-37
2022/04/21 09:46:56;;;;;;;;;;;;;;;26.12;26.11;100716.16;5072294;28;789;-37
2022/04/21 09:49:43;;;;;;;;;;;;;;;25.97;24.93;100705.28;5075840;28;817;-37
2022/04/21 09:52:08;;;;;;;;;;;;;;;26.18;24.29;100712.75;5075862;28;1951;-35
2022/04/21 09:54:34;;;;;;;;;;;;;;;25.95;22.71;100707.31;5075205;28;735;-35
2022/04/21 09:57:00;;;;;;;;;;;;;;;26.12;22.63;100708.06;5074243;28;750;-33
2022/04/21 09:59:25;;;;;;;;;;;;;;;26.11;21.29;100707.22;5075981;28;1007;-36
2022/04/21 10:01:50;;;;;;;;;;;;;;;26.02;21.74;100708.28;5061113;28;871;-37
2022/04/21 10:04:18;;;;;;;;;;;;;;;25.72;22.71;100717.03;5079320;28;798;-37
2022/04/21 10:06:44;;;;;;;;;;;;;;;25.75;21.77;100703.19;5079095;28;825;-38
2022/04/21 10:09:09;;;;;;;;;;;;;;;26.00;21.11;100704.94;5077852;28;1084;-34
2022/04/21 10:11:37;;;;;;;;;;;;;;;25.98;21.46;100698.88;5078978;28;1906;-36
2022/04/21 10:14:03;;;;;;;;;;;;;;;26.06;22.07;100693.44;5079446;28;788;-36
2022/04/21 10:16:29;;;;;;;;;;;;;;;26.07;21.85;100692.44;5061043;28;876;-37
2022/04/21 10:18:54;;;;;;;;;;;;;;;26.11;21.29;100699.13;5079189;28;1477;-33
2022/04/21 10:21:26;;;;;;;;;;;;;;;26.01;20.08;100695.81;5078173;28;1182;-38
2022/04/21 10:23:52;;;;;;;;;;;;;;;25.64;21.92;100693.63;5077162;28;1297;-35
2022/04/21 10:26:30;;;;;;;;;;;;;;;26.36;22.07;100687.41;5059386;28;1039;-36
2022/04/21 10:28:55;;;;;;;;;;;;;;;26.80;23.51;100701.19;5060975;28;1144;-36
2022/04/21 10:31:30;;;;;;;;;;;;;;;26.83;23.85;100704.38;5078740;28;1963;-38
2022/04/21 10:34:02;;;;;;;;;;;;;;;26.84;24.20;100713.31;5072203;28;1068;-37
2022/04/21 10:36:46;;;;;;;;;;;;;;;26.83;24.08;100704.38;5075694;28;1211;-35
2022/04/21 10:39:18;;;;;;;;;;;;;;;27.05;24.04;100704.56;5074822;28;873;-37
2022/04/21 10:41:43;;;;;;;;;;;;;;;26.99;23.98;100697.97;5077468;28;938;-33
2022/04/21 10:44:12;;;;;;;;;;;;;;;26.92;24.08;100702.47;5077829;28;1049;-37
2022/04/21 10:46:38;;;;;;;;;;;;;;;26.88;24.41;100699.28;5078082;28;883;-37
2022/04/21 10:49:03;;;;;;;;;;;;;;;26.96;24.10;100702.94;5076385;28;993;-33
2022/04/21 10:57:15;;;;;;;;;;;;;;;27.28;23.74;100694.72;5077868;28;874;-39
2022/04/21 10:59:50;;;;;;;;;;;;;;;27.58;23.81;100694.69;5084191;28;1110;-42
2022/04/21 11:02:16;;;;;;;;;;;;;;;27.70;25.28;100701.34;5090682;28;1002;-36
2022/04/21 11:04:41;;;;;;;;;;;;;;;26.98;24.73;100704.41;5086642;28;750;-41
2022/04/21 11:07:07;;;;;;;;;;;;;;;27.42;24.06;100699.28;5078542;28;862;-42
2022/04/21 11:09:48;;;;;;;;;;;;;;;27.75;23.93;100700.78;5078712;28;844;-42
2022/04/21 11:12:14;;;;;;;;;;;;;;;27.67;23.93;100700.84;5083326;28;1902;-42
2022/04/21 11:14:40;;;;;;;;;;;;;;;27.46;24.39;100708.66;5085824;28;839;-42
2022/04/21 11:17:05;;;;;;;;;;;;;;;27.34;24.48;100707.47;5090280;28;980;-35
2022/04/21 11:19:34;;;;;;;;;;;;;;;27.36;24.20;100702.72;5090806;28;1140;-33
2022/04/21 11:22:00;;;;;;;;;;;;;;;27.30;24.43;100707.00;5098148;28;840;-40
2022/04/21 11:24:25;;;;;;;;;;;;;;;27.35;24.40;100710.00;5097561;28;765;-43
2022/04/21 11:26:57;;;;;;;;;;;;;;;27.52;24.39;100709.81;5093038;28;945;-34
2022/04/21 11:29:22;;;;;;;;;;;;;;;27.45;24.15;100706.16;5078120;28;806;-38
2022/04/21 11:31:48;;;;;;;;;;;;;;;27.66;24.05;100707.28;5089679;28;1961;-36
2022/04/21 11:34:20;;;;;;;;;;;;;;;27.58;23.82;100703.66;5078702;28;928;-43
2022/04/21 11:36:45;;;;;;;;;;;;;;;27.54;25.01;100709.63;5083973;28;991;-40
2022/04/21 11:39:12;;;;;;;;;;;;;;;27.66;25.02;100709.97;5090724;28;885;-40
2022/04/21 11:41:44;;;;;;;;;;;;;;;27.70;24.10;100705.91;5088752;28;1266;-40
2022/04/21 11:44:10;;;;;;;;;;;;;;;27.59;24.13;100713.41;5077613;28;829;-35
2022/04/21 11:46:39;;;;;;;;;;;;;;;27.38;24.92;100704.22;5087617;28;807;-39
2022/04/21 11:49:04;;;;;;;;;;;;;;;27.45;24.57;100706.16;5077808;28;1170;-39
2022/04/21 11:51:29;;;;;;;;;;;;;;;27.53;24.72;100699.84;5086959;28;1897;-41
2022/04/21 11:53:55;;;;;;;;;;;;;;;27.84;24.42;100704.22;5077685;28;799;-40
2022/04/21 11:56:21;;;;;;;;;;;;;;;27.70;24.25;100706.75;5078000;28;793;-40
2022/04/21 11:58:47;;;;;;;;;;;;;;;27.38;25.00;100704.22;5077864;28;1232;-38
2022/04/21 12:06:45;;;;;;;;;;;;;;;27.35;24.90;100696.47;5083451;28;607;-38
2022/04/21 12:09:17;;;;;;;;;;;;;;;27.50;24.56;100690.22;5077619;28;855;-37
2022/04/21 12:11:42;;;;;;;;;;;;;;;27.48;24.50;100689.56;5078880;28;1976;-40
2022/04/21 12:14:08;;;;;;;;;;;;;;;27.70;24.34;100684.28;5065586;28;934;-40
2022/04/21 12:16:39;;;;;;;;;;;;;;;27.56;24.58;100681.38;5065827;28;994;-38
2022/04/21 12:19:38;;;;;;;;;;;;;;;27.56;24.60;100686.78;5077260;28;778;-39
2022/04/21 12:22:07;;;;;;;;;;;;;;;27.56;24.87;100680.56;5035808;28;1329;-39
2022/04/21 12:24:38;;;;;;;;;;;;;;;27.63;24.27;100687.72;5091271;28;1297;-37
2022/04/21 12:27:13;;;;;;;;;;;;;;;27.30;25.06;100688.09;5084882;28;1020;-40
2022/04/21 12:30:08;;;;;;;;;;;;;;;27.36;24.93;100684.66;5089522;28;884;-39
2022/04/21 12:32:38;;;;;;;;;;;;;;;27.30;25.15;100680.00;5067843;28;1902;-39
2022/04/21 12:35:06;;;;;;;;;;;;;;;27.30;24.90;100688.09;5086261;28;1076;-40
2022/04/21 12:37:32;;;;;;;;;;;;;;;27.50;24.78;100676.72;5088261;28;1242;-39
2022/04/21 12:39:58;;;;;;;;;;;;;;;27.26;24.81;100678.66;5093613;28;1285;-40
2022/04/21 12:42:24;;;;;;;;;;;;;;;27.12;25.25;100680.34;5086453;28;865;-39
2022/04/21 12:44:50;;;;;;;;;;;;;;;27.13;25.14;100673.94;5076184;28;897;-40
2022/04/21 12:47:18;;;;;;;;;;;;;;;27.04;25.34;100662.41;5083614;28;996;-40
2022/04/21 12:49:59;;;;;;;;;;;;;;;27.12;25.29;100669.56;5091314;28;1254;-38
2022/04/21 12:52:30;;;;;;;;;;;;;;;27.24;25.17;100664.53;5090835;28;1960;-38
2022/04/21 12:54:55;;;;;;;;;;;;;;;27.46;24.82;100665.44;5082608;28;1072;-38
2022/04/21 12:57:21;;;;;;;;;;;;;;;27.39;25.09;100670.75;5092372;28;1033;-38
2022/04/21 12:59:46;;;;;;;;;;;;;;;27.52;25.17;100680.09;5095393;28;1067;-42
2022/04/21 13:02:13;;;;;;;;;;;;;;;27.48;25.02;100678.75;5086406;28;978;-41
2022/04/21 13:04:39;;;;;;;;;;;;;;;27.37;25.37;100678.25;5076825;28;898;-40
2022/04/21 13:07:04;;;;;;;;;;;;;;;27.45;25.37;100682.69;5080225;28;949;-38
2022/04/21 13:09:31;;;;;;;;;;;;;;;27.39;25.15;100678.88;5088610;28;1278;-37
2022/04/21 13:11:56;;;;;;;;;;;;;;;27.37;25.35;100680.09;5091747;28;1902;-37
2022/04/21 13:14:22;;;;;;;;;;;;;;;27.46;25.39;100681.66;5086930;28;1065;-38
2022/04/21 13:16:47;;;;;;;;;;;;;;;27.44;25.04;100682.88;5095638;28;1053;-36
2022/04/21 13:19:12;;;;;;;;;;;;;;;27.19;25.59;100688.56;5085783;28;1233;-31
2022/04/21 13:21:53;;;;;;;;;;;;;;;27.29;25.73;100685.59;5096195;28;1357;-40
2022/04/21 13:24:18;;;;;;;;;;;;;;;27.39;25.29;100684.25;5088495;28;1040;-39
2022/04/21 13:26:44;;;;;;;;;;;;;;;27.53;25.09;100687.16;5084323;28;1016;-40
2022/04/21 13:29:09;;;;;;;;;;;;;;;27.33;25.52;100676.06;5066791;28;1226;-39
2022/04/21 13:34:18;;;;;;;;;;;;;;;27.15;25.58;100674.59;5087889;28;876;-40
2022/04/21 13:36:43;;;;;;;;;;;;;;;27.04;26.31;100666.94;5082484;28;1222;-41
2022/04/21 13:39:08;;;;;;;;;;;;;;;27.25;26.31;100667.06;5084877;28;877;-41